Terminal Aerodrome Forecast
Issued by NWS

Home | Current Version | Previous Version | Text Only | Print | Product List | Glossary Off
Versions: 1 2 3 4 5 6 7 8 9 10 11 12 13 14 15 16 17 18 19 20 21 22 23

000
FTUS43 KBIS 180422 AAB
TAFJMS
TAF AMD
KJMS 180422Z 1804/1824 18013G26KT 6SM RA VCTS FEW060 BKN120CB
     FM180900 13012KT 5SM RA VCTS BKN090CB
      TEMPO 1811/1814 BKN025 OVC090CB
     FM181400 14010KT P6SM VCSH BKN020
     FM181800 18015G23KT P6SM VCSH BKN020
     FM182100 28015G24KT P6SM VCTS BKN025CB
     FM182300 33014G23KT P6SM VCTS BKN020CB=

USA.gov is the U.S. government's official web portal to all federal, state and local government web resources and services.